createdAt,value
2022-08-24T00:00:12.401Z,65835.13
2022-08-24T00:02:39.578Z,65835.13
2022-08-24T00:05:12.737Z,65835.13
2022-08-24T00:07:41.583Z,65835.13
2022-08-24T00:10:10.953Z,65835.13
2022-08-24T00:12:37.916Z,65835.13
2022-08-24T00:15:07.231Z,65835.13
2022-08-24T00:17:34.367Z,65835.13
2022-08-24T00:20:01.405Z,65835.13
2022-08-24T00:22:29.127Z,65835.13
2022-08-24T00:24:57.012Z,65835.13
2022-08-24T00:27:24.647Z,65835.13
2022-08-24T00:29:51.823Z,65835.13
2022-08-24T00:32:18.906Z,65835.13
2022-08-24T00:34:58.251Z,65835.13
2022-08-24T00:37:26.109Z,65835.13
2022-08-24T00:39:53.068Z,65835.13
2022-08-24T00:42:20.275Z,65835.13
2022-08-24T00:44:47.474Z,65835.13
2022-08-24T00:47:27.917Z,65835.13
2022-08-24T00:50:06.582Z,65835.13
2022-08-24T00:52:39.308Z,65835.13
2022-08-24T00:55:15.831Z,65835.13
2022-08-24T00:57:47.001Z,65835.13
2022-08-24T01:00:23.678Z,65835.13
2022-08-24T01:03:01.700Z,65835.13
2022-08-24T01:05:28.700Z,65835.13
2022-08-24T01:07:55.757Z,65835.13
2022-08-24T01:10:27.402Z,65835.13
2022-08-24T01:13:01.924Z,65835.13
2022-08-24T01:15:35.436Z,65835.13
2022-08-24T01:18:24.860Z,65835.13
2022-08-24T01:21:01.234Z,65835.13
2022-08-24T01:23:28.022Z,65835.13
2022-08-24T01:26:04.399Z,65835.13
2022-08-24T01:28:32.263Z,65835.13
2022-08-24T01:31:00.147Z,65835.13
2022-08-24T01:33:29.953Z,65835.13
2022-08-24T01:36:01.185Z,65835.13
2022-08-24T01:38:30.021Z,65835.13
2022-08-24T01:41:02.529Z,65835.13
2022-08-24T01:43:29.921Z,65835.13
2022-08-24T01:45:57.955Z,65835.13
2022-08-24T01:48:24.992Z,65835.13
2022-08-24T01:50:53.744Z,65835.13
2022-08-24T01:53:22.340Z,65835.13
2022-08-24T01:55:50.332Z,65835.13
2022-08-24T01:58:18.617Z,65835.13
2022-08-24T02:00:45.913Z,65835.13
2022-08-24T02:03:14.396Z,65835.13
2022-08-24T02:05:44.958Z,65835.13
2022-08-24T02:08:15.171Z,65835.13
2022-08-24T02:10:45.896Z,65835.13
2022-08-24T02:13:22.074Z,65835.13
2022-08-24T02:15:49.099Z,65835.13
2022-08-24T02:18:16.258Z,65835.13
2022-08-24T02:20:45.324Z,65835.13
2022-08-24T02:23:12.625Z,65835.13
2022-08-24T02:25:39.615Z,65835.13
2022-08-24T02:28:06.622Z,65835.13
2022-08-24T02:30:33.970Z,65835.13
2022-08-24T02:33:01.712Z,65835.13
2022-08-24T02:35:30.223Z,65835.13
2022-08-24T02:37:58.207Z,65835.13
2022-08-24T02:40:27.315Z,65835.13
2022-08-24T02:42:56.201Z,65835.13
2022-08-24T02:45:23.579Z,65835.13
2022-08-24T02:47:50.620Z,65835.13
2022-08-24T02:50:18.958Z,65835.13
2022-08-24T02:52:46.600Z,65835.13
2022-08-24T02:55:20.044Z,65835.13
2022-08-24T02:57:50.839Z,65835.13
2022-08-24T03:00:20.577Z,65835.13
2022-08-24T03:02:51.861Z,65835.13
2022-08-24T03:05:20.378Z,65835.13
2022-08-24T03:07:48.303Z,65835.13
2022-08-24T03:10:15.734Z,65835.13
2022-08-24T03:12:42.718Z,65835.13
2022-08-24T03:15:11.515Z,65835.13
2022-08-24T03:17:41.117Z,65835.13
2022-08-24T03:20:14.777Z,65835.13
2022-08-24T03:22:42.937Z,65835.13
2022-08-24T03:25:11.206Z,65835.13
2022-08-24T03:27:38.606Z,65835.13
2022-08-24T03:30:07.205Z,65835.13
2022-08-24T03:32:34.883Z,65835.13
2022-08-24T03:35:02.586Z,65835.13
2022-08-24T03:37:29.657Z,65835.13
2022-08-24T03:39:56.796Z,65835.13
2022-08-24T03:42:23.877Z,65835.13
2022-08-24T03:44:51.266Z,65835.13
2022-08-24T03:47:21.372Z,65835.13
2022-08-24T03:49:48.831Z,65835.13
2022-08-24T03:52:17.100Z,65835.13
2022-08-24T03:54:45.241Z,65835.13
2022-08-24T03:57:13.926Z,65835.13
2022-08-24T03:59:46.469Z,65835.13
2022-08-24T04:02:15.051Z,65835.13
2022-08-24T04:04:42.087Z,65835.13
2022-08-24T04:07:11.438Z,65835.13
2022-08-24T04:09:38.423Z,65835.13
2022-08-24T04:12:05.686Z,65835.13
2022-08-24T04:14:34.519Z,65835.13
2022-08-24T04:17:08.513Z,65835.13
2022-08-24T04:19:57.739Z,65835.13
2022-08-24T04:22:34.353Z,65835.13
2022-08-24T04:25:08.927Z,65835.13
2022-08-24T04:27:40.569Z,65835.13
2022-08-24T04:30:09.485Z,65835.13
2022-08-24T04:32:56.628Z,65835.13
2022-08-24T04:35:24.447Z,65835.13
2022-08-24T04:37:51.621Z,65835.13
2022-08-24T04:40:19.351Z,65835.13
2022-08-24T04:42:48.525Z,65835.13
2022-08-24T04:45:16.045Z,65835.13
2022-08-24T04:47:46.410Z,65835.13
2022-08-24T04:50:13.387Z,65835.13
2022-08-24T04:52:42.543Z,65835.13
2022-08-24T04:55:10.341Z,65835.13
2022-08-24T04:57:37.290Z,65835.13
2022-08-24T05:00:06.807Z,65835.13
2022-08-24T05:02:38.187Z,65835.13
2022-08-24T05:05:09.853Z,65835.13
2022-08-24T05:07:38.343Z,65835.13
2022-08-24T05:10:07.472Z,65835.13
2022-08-24T05:12:36.168Z,65835.13
2022-08-24T05:15:08.861Z,65835.13
2022-08-24T05:17:41.548Z,65835.13
2022-08-24T05:20:11.617Z,65835.13
2022-08-24T05:22:39.394Z,65835.13
2022-08-24T05:25:06.879Z,65835.13
2022-08-24T05:27:35.406Z,65835.13
2022-08-24T05:30:03.327Z,65835.13
2022-08-24T05:32:30.422Z,65835.13
2022-08-24T05:35:01.477Z,65835.13
2022-08-24T05:37:28.744Z,65835.13
2022-08-24T05:40:17.236Z,65835.13
2022-08-24T05:42:48.739Z,65835.13
2022-08-24T05:45:16.376Z,65835.13
2022-08-24T05:47:43.682Z,65835.13
2022-08-24T05:50:30.569Z,65835.13
2022-08-24T05:52:57.662Z,65835.13
2022-08-24T05:55:24.836Z,65835.13
2022-08-24T05:57:52.744Z,65835.13
2022-08-24T06:00:25.796Z,65835.13
2022-08-24T06:02:53.378Z,65835.13
2022-08-24T06:05:22.127Z,65835.13
2022-08-24T06:07:50.028Z,65835.13
2022-08-24T06:10:35.889Z,65835.13
2022-08-24T06:13:05.644Z,65835.13
2022-08-24T06:15:33.613Z,65835.13
2022-08-24T06:18:00.754Z,65835.13
2022-08-24T06:20:27.903Z,65835.13
2022-08-24T06:22:54.826Z,65835.13
2022-08-24T06:25:42.368Z,65835.13
2022-08-24T06:28:09.731Z,65835.13
2022-08-24T06:30:37.724Z,65835.13
2022-08-24T06:33:24.361Z,65835.13
2022-08-24T06:35:52.797Z,65835.13
2022-08-24T06:38:20.479Z,65835.13
2022-08-24T06:40:50.019Z,65835.13
2022-08-24T06:43:19.378Z,65835.13
2022-08-24T06:45:55.896Z,65835.13
2022-08-24T06:48:35.978Z,65835.13
2022-08-24T06:51:12.462Z,65835.13
2022-08-24T06:53:40.515Z,65835.13
2022-08-24T06:56:08.872Z,65835.13
2022-08-24T06:58:37.116Z,65835.13
2022-08-24T07:01:12.289Z,65835.13
2022-08-24T07:03:40.614Z,65835.13
2022-08-24T07:06:39.961Z,65835.13
2022-08-24T07:09:08.622Z,65835.13
2022-08-24T07:11:36.527Z,65835.13
2022-08-24T07:14:04.911Z,65835.13
2022-08-24T07:16:31.922Z,65835.13
2022-08-24T07:19:05.034Z,65835.13
2022-08-24T07:21:32.617Z,65835.13
2022-08-24T07:24:01.238Z,65835.13
2022-08-24T07:26:32.767Z,65835.13
2022-08-24T07:29:05.633Z,65835.13
2022-08-24T07:31:43.285Z,65835.13
2022-08-24T07:34:16.980Z,65835.13
2022-08-24T07:36:45.042Z,65835.13
2022-08-24T07:39:12.897Z,65835.13
2022-08-24T07:44:31.982Z,65835.13
2022-08-24T07:47:07.243Z,65835.13
2022-08-24T07:49:42.704Z,65835.13
2022-08-24T07:52:10.830Z,65835.13
2022-08-24T07:54:38.195Z,65835.13
2022-08-24T07:57:06.749Z,65835.13
2022-08-24T07:59:36.251Z,65835.13
2022-08-24T08:02:03.803Z,65835.13
2022-08-24T08:04:32.224Z,65835.13
2022-08-24T08:07:02.968Z,65835.13
2022-08-24T08:09:32.722Z,65835.13
2022-08-24T08:12:00.038Z,65835.13
2022-08-24T08:14:27.191Z,65835.13
2022-08-24T08:16:54.364Z,65835.13
2022-08-24T08:19:22.484Z,65835.13
2022-08-24T08:22:10.458Z,65835.13
2022-08-24T08:24:57.494Z,65835.13
2022-08-24T08:27:25.567Z,65835.13
2022-08-24T08:29:53.011Z,65835.13
2022-08-24T08:32:20.319Z,65835.13
2022-08-24T08:34:50.410Z,65835.13
2022-08-24T08:37:18.009Z,65835.13
2022-08-24T08:39:45.384Z,65835.13
2022-08-24T08:42:40.181Z,65835.13
2022-08-24T08:45:28.629Z,65835.13
2022-08-24T08:48:37.022Z,65835.13
2022-08-24T08:51:31.402Z,65835.13
2022-08-24T08:54:27.239Z,65835.13
2022-08-24T08:57:12.314Z,65835.13
2022-08-24T09:00:10.042Z,65835.13
2022-08-24T09:03:03.284Z,65835.13
2022-08-24T09:08:41.523Z,65835.13
2022-08-24T09:11:19.153Z,65835.13
2022-08-24T09:14:15.242Z,65835.13
2022-08-24T09:16:54.804Z,65835.13
2022-08-24T09:20:11.055Z,65835.13
2022-08-24T09:22:49.794Z,65835.13
2022-08-24T09:25:26.660Z,65835.13
2022-08-24T09:28:16.799Z,65835.13
2022-08-24T09:30:52.593Z,65835.13
2022-08-24T09:33:49.381Z,65835.13
2022-08-24T09:36:33.993Z,65835.13
2022-08-24T09:39:25.575Z,65835.13
2022-08-24T09:42:25.683Z,65835.13
2022-08-24T10:18:17.690Z,97493.41
2022-08-24T10:21:04.557Z,97486.38
2022-08-24T10:23:49.714Z,97487.53
2022-08-24T10:26:30.967Z,97479.47
2022-08-24T10:29:28.618Z,97479.25
2022-08-24T10:32:40.207Z,97468.06
2022-08-24T10:35:14.665Z,97448.06
2022-08-24T10:38:22.996Z,97436.88
2022-08-24T10:41:16.912Z,97439.50
2022-08-24T10:44:08.820Z,97445.53
2022-08-24T10:47:04.908Z,97465.09
2022-08-24T10:49:37.752Z,97476.41
2022-08-24T10:52:13.387Z,97484.59
2022-08-24T10:54:40.890Z,97489.44
2022-08-24T10:57:38.081Z,97499.56
2022-08-24T11:00:07.065Z,97492.22
2022-08-24T11:02:37.341Z,97490.94
2022-08-24T11:05:08.404Z,97498.63
2022-08-24T11:07:36.810Z,97506.84
2022-08-24T11:10:10.102Z,97517.94
2022-08-24T11:12:43.385Z,97522.53
2022-08-24T11:15:19.025Z,97525.59
2022-08-24T11:17:56.833Z,97520.78
2022-08-24T11:20:32.826Z,97525.94
2022-08-24T11:23:09.581Z,97521.78
2022-08-24T11:25:40.419Z,97518.31
2022-08-24T11:28:12.688Z,97518.00
2022-08-24T11:30:41.361Z,97513.22
2022-08-24T11:33:31.120Z,97508.22
2022-08-24T11:36:00.470Z,97505.13
2022-08-24T11:38:35.003Z,97499.50
2022-08-24T11:41:19.321Z,97499.97
2022-08-24T11:43:58.339Z,97498.41
2022-08-24T11:46:25.358Z,97501.81
2022-08-24T11:49:22.677Z,97492.56
2022-08-24T11:52:03.158Z,97483.44
2022-08-24T11:54:39.166Z,97484.44
2022-08-24T11:57:11.362Z,97479.06
2022-08-24T12:00:12.032Z,97477.78
2022-08-24T12:02:52.057Z,97470.94
2022-08-24T12:05:32.897Z,97464.22
2022-08-24T12:08:17.967Z,97462.94
2022-08-24T12:11:00.619Z,97462.00
2022-08-24T12:13:30.431Z,97459.94
2022-08-24T12:16:15.130Z,97465.66
2022-08-24T12:19:02.715Z,97459.44
2022-08-24T12:21:33.755Z,97461.28
2022-08-24T12:24:09.445Z,97458.72
2022-08-24T12:26:43.106Z,97459.94
2022-08-24T12:29:14.897Z,97453.69
2022-08-24T12:31:54.575Z,97454.25
2022-08-24T12:34:30.669Z,97450.47
2022-08-24T12:37:13.072Z,97453.53
2022-08-24T12:39:54.382Z,97448.78
2022-08-24T12:42:33.222Z,97444.44
2022-08-24T12:45:06.485Z,97445.41
2022-08-24T12:47:56.531Z,97448.50
2022-08-24T12:50:53.423Z,97454.00
2022-08-24T12:53:26.578Z,97454.00
2022-08-24T12:56:24.819Z,97448.94
2022-08-24T12:59:26.955Z,97457.72
2022-08-24T13:02:24.492Z,97435.63
2022-08-24T13:04:51.390Z,97436.22
2022-08-24T13:07:24.124Z,97434.09
2022-08-24T13:09:53.749Z,97429.00
2022-08-24T13:12:39.037Z,97431.56
2022-08-24T13:15:24.092Z,97431.56
2022-08-24T13:18:09.534Z,97437.59
2022-08-24T13:20:36.878Z,97439.22
2022-08-24T13:23:21.983Z,97436.47
2022-08-24T13:25:51.385Z,97430.84
2022-08-24T13:28:21.382Z,97431.88
2022-08-24T13:31:12.650Z,97423.16
2022-08-24T13:33:47.743Z,97420.03
2022-08-24T13:36:45.075Z,97417.00
2022-08-24T13:39:39.847Z,97412.28
2022-08-24T13:42:28.547Z,97398.22
2022-08-24T13:44:58.311Z,97397.38
2022-08-24T13:47:44.798Z,97400.53
2022-08-24T13:50:29.014Z,97405.19
2022-08-24T13:53:34.488Z,97401.31
2022-08-24T13:56:30.307Z,97401.19
2022-08-24T13:59:18.436Z,97400.00
2022-08-24T14:02:18.599Z,97397.00
2022-08-24T14:04:45.486Z,97399.75
2022-08-24T14:07:15.775Z,97405.25
2022-08-24T14:09:58.563Z,97405.59
2022-08-24T14:12:32.103Z,97399.75
2022-08-24T14:15:14.675Z,97401.19
2022-08-24T14:18:06.465Z,97402.78
2022-08-24T14:20:52.619Z,97401.00
2022-08-24T14:23:47.498Z,97397.00
2022-08-24T14:26:42.116Z,97396.41
2022-08-24T14:29:18.223Z,97398.84
2022-08-24T14:32:08.486Z,97391.97
2022-08-24T14:35:08.485Z,97395.75
2022-08-24T14:37:35.414Z,97390.91
2022-08-24T14:40:20.282Z,97387.06
2022-08-24T14:42:56.095Z,97397.53
2022-08-24T14:45:44.557Z,97389.72
2022-08-24T14:48:55.528Z,97386.53
2022-08-24T14:51:25.455Z,97385.84
2022-08-24T14:54:19.917Z,97380.16
2022-08-24T14:57:04.792Z,97378.38
2022-08-24T14:59:40.422Z,97373.41
2022-08-24T15:02:28.692Z,97365.38
2022-08-24T15:05:32.439Z,97361.81
2022-08-24T15:08:27.170Z,97353.00
2022-08-24T15:11:07.515Z,97336.72
2022-08-24T15:13:54.087Z,97333.06
2022-08-24T15:16:41.202Z,97344.66
2022-08-24T15:19:22.876Z,97350.50
2022-08-24T15:22:00.140Z,97344.13
2022-08-24T15:24:47.406Z,97338.63
2022-08-24T15:27:42.181Z,97335.25
2022-08-24T15:30:27.404Z,97327.88
2022-08-24T15:33:10.443Z,97328.56
2022-08-24T15:35:41.265Z,97327.94
2022-08-24T15:38:20.170Z,97332.63
2022-08-24T15:40:49.428Z,97331.88
2022-08-24T15:43:17.581Z,97341.81
2022-08-24T15:45:51.927Z,97360.03
2022-08-24T15:48:24.719Z,97365.84
2022-08-24T15:50:53.836Z,97375.22
2022-08-24T15:53:33.327Z,97376.22
2022-08-24T15:56:36.102Z,97387.75
2022-08-24T15:59:10.586Z,97400.28
2022-08-24T16:01:56.017Z,97398.09
2022-08-24T16:05:27.059Z,97400.19
2022-08-24T16:08:03.780Z,97405.72
2022-08-24T16:10:44.081Z,97399.31
2022-08-24T16:13:20.159Z,97409.63
2022-08-24T16:15:46.908Z,97415.00
2022-08-24T16:18:15.150Z,97417.13
2022-08-24T16:20:43.760Z,97405.69
2022-08-24T16:23:20.862Z,97411.03
2022-08-24T16:25:51.178Z,97413.78
2022-08-24T16:28:23.952Z,97416.69
2022-08-24T16:30:57.846Z,97419.38
2022-08-24T16:33:47.419Z,97412.84
2022-08-24T16:36:18.134Z,97412.34
2022-08-24T16:38:49.209Z,97409.94
2022-08-24T16:41:20.181Z,97408.63
2022-08-24T16:43:47.498Z,97418.25
2022-08-24T16:46:21.167Z,97419.28
2022-08-24T16:48:48.331Z,97416.94
2022-08-24T16:51:15.472Z,97412.31
2022-08-24T16:53:43.054Z,97415.59
2022-08-24T16:56:12.581Z,97414.06
2022-08-24T16:58:42.983Z,97407.56
2022-08-24T17:01:10.004Z,97410.41
2022-08-24T17:03:37.138Z,97413.38
2022-08-24T17:06:04.191Z,97409.56
2022-08-24T17:08:31.398Z,97413.00
2022-08-24T17:10:58.439Z,97416.09
2022-08-24T17:13:48.274Z,97414.56
2022-08-24T17:16:13.108Z,97411.19
2022-08-24T17:18:41.720Z,97420.03
2022-08-24T17:21:08.932Z,97415.59
2022-08-24T17:23:36.463Z,97411.28
2022-08-24T17:26:19.217Z,97417.56
2022-08-24T17:28:48.371Z,97429.59
2022-08-24T17:31:15.848Z,97434.41
2022-08-24T17:33:43.108Z,97447.88
2022-08-24T17:36:15.244Z,97450.44
2022-08-24T17:38:55.073Z,97455.56
2022-08-24T17:41:25.103Z,97461.78
2022-08-24T17:43:53.070Z,97464.84
2022-08-24T17:46:21.009Z,97469.47
2022-08-24T17:48:48.541Z,97469.63
2022-08-24T17:51:15.720Z,97474.56
2022-08-24T17:53:42.949Z,97474.06
2022-08-24T17:56:13.212Z,97465.88
2022-08-24T17:59:00.530Z,97473.56
2022-08-24T18:01:28.571Z,97485.22
2022-08-24T18:03:56.230Z,97490.59
2022-08-24T18:06:27.713Z,97495.72
2022-08-24T18:08:56.885Z,97506.00
2022-08-24T18:11:26.144Z,97503.59
2022-08-24T18:13:54.504Z,97508.69
2022-08-24T18:16:24.902Z,97509.78
2022-08-24T18:18:53.599Z,97512.63
2022-08-24T18:21:21.544Z,97510.19
2022-08-24T18:23:50.352Z,97508.91
2022-08-24T18:26:25.928Z,97503.56
2022-08-24T18:28:57.705Z,97495.41
2022-08-24T18:31:27.421Z,97501.09
2022-08-24T18:33:54.752Z,97506.09
2022-08-24T18:36:21.977Z,97500.88
2022-08-24T18:38:49.020Z,97501.41
2022-08-24T18:41:17.102Z,97504.13
2022-08-24T18:43:44.234Z,97514.00
2022-08-24T18:46:11.354Z,97520.47
2022-08-24T18:48:38.554Z,97519.09
2022-08-24T18:51:05.891Z,97520.13
2022-08-24T18:53:35.572Z,97516.50
2022-08-24T18:56:10.588Z,97514.94
2022-08-24T18:58:39.701Z,97513.66
2022-08-24T19:01:07.184Z,97503.00
2022-08-24T19:03:34.757Z,97502.09
2022-08-24T19:06:01.735Z,97492.63
2022-08-24T19:08:28.707Z,97501.38
2022-08-24T19:10:56.396Z,97507.59
2022-08-24T19:13:23.459Z,97514.03
2022-08-24T19:15:51.501Z,97512.72
2022-08-24T19:18:21.479Z,97511.19
2022-08-24T19:20:51.597Z,97503.56
2022-08-24T19:23:31.350Z,97510.69
2022-08-24T19:25:59.009Z,97512.69
2022-08-24T19:28:26.781Z,97518.28
2022-08-24T19:30:59.757Z,97521.16
2022-08-24T19:33:32.029Z,97523.44
2022-08-24T19:35:59.722Z,97523.81
2022-08-24T19:38:26.793Z,97534.47
2022-08-24T19:40:56.613Z,97537.38
2022-08-24T19:43:26.839Z,97558.72
2022-08-24T19:46:08.597Z,97559.31
2022-08-24T19:48:39.712Z,97567.75
2022-08-24T19:51:11.871Z,97572.16
2022-08-24T19:53:39.322Z,97572.72
2022-08-24T19:56:07.361Z,97576.56
2022-08-24T19:58:45.335Z,97580.66
2022-08-24T20:01:31.716Z,97576.91
2022-08-24T20:03:58.938Z,97583.00
2022-08-24T20:06:27.510Z,97577.72
2022-08-24T20:08:55.107Z,97581.06
2022-08-24T20:11:25.042Z,97585.13
2022-08-24T20:13:53.405Z,97595.31
2022-08-24T20:16:22.298Z,97596.34
2022-08-24T20:18:50.151Z,97595.25
2022-08-24T20:21:18.571Z,97600.06
2022-08-24T20:23:45.663Z,97602.97
2022-08-24T20:26:13.807Z,97603.31
2022-08-24T20:28:46.387Z,97606.69
2022-08-24T20:31:14.935Z,97609.47
2022-08-24T20:33:42.494Z,97614.94
2022-08-24T20:36:25.625Z,97625.31
2022-08-24T20:38:55.417Z,97631.25
2022-08-24T20:41:24.277Z,97624.38
2022-08-24T20:43:51.411Z,97618.22
2022-08-24T20:46:18.447Z,97606.06
2022-08-24T20:48:46.797Z,97602.31
2022-08-24T20:51:24.269Z,97603.69
2022-08-24T20:53:51.680Z,97600.78
2022-08-24T20:56:31.026Z,97596.94
2022-08-24T20:59:01.380Z,97597.91
2022-08-24T21:01:28.710Z,97606.16
2022-08-24T21:03:56.071Z,97609.31
2022-08-24T21:06:23.582Z,97597.13
2022-08-24T21:08:52.548Z,97597.41
2022-08-24T21:11:20.260Z,97591.53
2022-08-24T21:13:47.462Z,97587.00
2022-08-24T21:16:16.738Z,97591.91
2022-08-24T21:18:43.851Z,97587.94
2022-08-24T21:21:10.824Z,97579.03
2022-08-24T21:23:37.811Z,97576.72
2022-08-24T21:26:08.814Z,97578.13
2022-08-24T21:28:37.019Z,97580.91
2022-08-24T21:31:06.302Z,97569.88
2022-08-24T21:33:52.520Z,97570.72
2022-08-24T21:36:25.539Z,97570.97
2022-08-24T21:38:54.671Z,97568.75
2022-08-24T21:41:22.234Z,97573.75
2022-08-24T21:43:49.497Z,97556.06
2022-08-24T21:46:17.257Z,97544.88
2022-08-24T21:48:44.346Z,97527.84
2022-08-24T21:51:11.326Z,97524.28
2022-08-24T21:53:38.579Z,97524.22
2022-08-24T21:56:05.905Z,97524.47
2022-08-24T21:58:33.476Z,97520.94
2022-08-24T22:01:01.126Z,97532.84
2022-08-24T22:03:32.725Z,97531.19
2022-08-24T22:06:08.734Z,97545.00
2022-08-24T22:08:41.858Z,97545.84
2022-08-24T22:11:10.694Z,97552.59
2022-08-24T22:13:38.416Z,97551.81
2022-08-24T22:16:06.890Z,97562.81
2022-08-24T22:18:34.114Z,97562.59
2022-08-24T22:21:09.625Z,97565.59
2022-08-24T22:23:36.901Z,97563.75
2022-08-24T22:26:05.794Z,97569.09
2022-08-24T22:28:38.119Z,97574.69
2022-08-24T22:31:35.005Z,97571.88
2022-08-24T22:34:05.919Z,97562.91
2022-08-24T22:36:33.099Z,97549.06
2022-08-24T22:39:01.165Z,97539.16
2022-08-24T22:41:28.873Z,97532.44
2022-08-24T22:44:16.076Z,97524.75
2022-08-24T22:46:43.316Z,97522.44
2022-08-24T22:49:11.193Z,97525.00
2022-08-24T22:51:39.025Z,97531.41
2022-08-24T22:54:06.654Z,97543.31
2022-08-24T22:56:37.696Z,97556.31
2022-08-24T22:59:06.715Z,97544.00
2022-08-24T23:01:37.696Z,97550.06
2022-08-24T23:04:09.251Z,97557.19
2022-08-24T23:06:36.497Z,97559.28
2022-08-24T23:09:05.665Z,97569.63
2022-08-24T23:11:33.228Z,97579.00
2022-08-24T23:14:04.585Z,97586.28
2022-08-24T23:16:34.809Z,97584.69
2022-08-24T23:19:20.377Z,97582.03
2022-08-24T23:21:47.403Z,97583.06
2022-08-24T23:24:14.478Z,97585.50
2022-08-24T23:26:43.087Z,97584.69
2022-08-24T23:29:12.755Z,97581.19
2022-08-24T23:31:40.741Z,97569.25
2022-08-24T23:34:08.185Z,97570.38
2022-08-24T23:36:36.423Z,97572.88
2022-08-24T23:39:05.113Z,97583.41
2022-08-24T23:41:34.382Z,97587.00
2022-08-24T23:44:04.408Z,97594.00
2022-08-24T23:46:31.598Z,97586.00
2022-08-24T23:49:02.818Z,97590.97
2022-08-24T23:51:31.031Z,97581.44
2022-08-24T23:53:59.226Z,97578.88
2022-08-24T23:56:31.610Z,97581.94
2022-08-24T23:59:09.292Z,97597.63
